Decoded Metar for KVTN (VALENTINE in NE, USA) (IATA:VTN) | Meteo·Mobile Aviation Weather
aviador You're here:

KVTN Decoded Metar

VALENTINE in NE, USA
Report Time2019-02-18 10:20:00
UTC Time2019-02-18 10:28:38
Flight Rules ifr IFR
Wind320° at 10 kt
W.Decomp.*RWY 32: 9.9 kt HW 1.4 kt LCW
RWY 03: 2.1 kt HW 9.8 kt LCW
W.Rank320° ranks 1
Current wind is below 320° avg. (12.0)
Visibility9999 m
Phenomena:N/A
Clouds:Overcast 009 Hf
Expected CloudBase > 1,200 ft AGL from Temp-Dew spread
Ceiling900 ft
Temp-16°C (ISA -26)
Dew Point-19°C (78% RH)
AAT-23.1°C
QNH1026 hPa
Density Alt-1,089 ft
Elevation2,585 ft
Report Wrong Elevation
Raw Report
KVTN 181020Z AUTO 32010KT 9SM OVC009 M16/M19 A3031=

Extra information for KVTN:More info

Metar Taf Metar & Taf Last 4 Metars F.Rules Stats Wind Profile Meteogram Temp Stats Airport Information Weather charts Add Link Nearby VenuesMetar ALERT Operation Metar Decoded Social comments

AIRNAV info for KVTN